Time;durP1;ratioP1;P1;durP2;ratioP2;P2;SDS_P1;SDS_P2;PMS_P1;PMS_P2;Temp;Humidity;BMP_temperature;BMP_pressure;BME280_temperature;BME280_humidity;BME280_pressure;Samples;Min_cycle;Max_cycle;Signal;HPM_P1;HPM_P2
2022/12/03 00:01:48;;;;;;;19.38;12.27;;;21.90;38.70;;;;;;4993720;28;20133;-59
2022/12/03 00:04:13;;;;;;;18.90;12.27;;;21.80;38.70;;;;;;4993246;28;20121;-58
2022/12/03 00:06:39;;;;;;;16.85;11.57;;;21.80;38.70;;;;;;4994433;28;20042;-60
2022/12/03 00:09:05;;;;;;;18.98;12.60;;;21.80;38.70;;;;;;4996544;28;20030;-59
2022/12/03 00:11:30;;;;;;;19.33;11.45;;;21.70;38.80;;;;;;4993834;28;20729;-59
2022/12/03 00:13:56;;;;;;;13.23;10.38;;;21.70;38.80;;;;;;4994680;28;20062;-59
2022/12/03 00:16:21;;;;;;;16.98;11.73;;;21.70;38.80;;;;;;4991873;28;20046;-60
2022/12/03 00:18:47;;;;;;;14.43;9.98;;;21.70;38.90;;;;;;4994123;28;20121;-59
2022/12/03 00:21:12;;;;;;;16.52;10.65;;;21.70;38.70;;;;;;4992586;28;20049;-60
2022/12/03 00:23:38;;;;;;;13.68;9.98;;;21.60;38.70;;;;;;4995855;28;20527;-61
2022/12/03 00:26:04;;;;;;;15.30;10.32;;;21.60;38.70;;;;;;5008624;28;20045;-61
2022/12/03 00:28:30;;;;;;;13.50;10.25;;;21.60;38.70;;;;;;4994089;28;20131;-59
2022/12/03 00:30:55;;;;;;;12.93;10.05;;;21.60;38.70;;;;;;4992836;28;20045;-59
2022/12/03 00:33:21;;;;;;;13.50;9.68;;;21.50;38.70;;;;;;4993496;28;20791;-59
2022/12/03 00:35:47;;;;;;;12.27;9.38;;;21.50;38.70;;;;;;4994250;28;20088;-59
2022/12/03 00:38:13;;;;;;;13.50;8.90;;;21.50;38.70;;;;;;4994798;28;20736;-59
2022/12/03 00:40:39;;;;;;;12.00;9.38;;;21.50;38.70;;;;;;4992772;28;20080;-59
2022/12/03 00:43:04;;;;;;;12.18;9.07;;;21.40;38.70;;;;;;4994387;28;20050;-59
2022/12/03 00:45:30;;;;;;;11.02;8.63;;;21.40;38.70;;;;;;4993717;28;20097;-59
2022/12/03 00:47:56;;;;;;;11.40;8.52;;;21.40;38.80;;;;;;4994257;28;20069;-60
2022/12/03 00:50:21;;;;;;;12.52;8.93;;;21.40;38.80;;;;;;4993794;28;20554;-60
2022/12/03 00:52:48;;;;;;;11.77;8.38;;;21.40;38.80;;;;;;4992767;28;20828;-59
2022/12/03 00:55:14;;;;;;;12.02;8.48;;;21.40;38.80;;;;;;4994222;28;20065;-59
2022/12/03 00:57:40;;;;;;;10.50;8.18;;;21.40;38.90;;;;;;4994568;28;20412;-59
2022/12/03 01:00:07;;;;;;;10.63;8.02;;;21.30;38.90;;;;;;4991266;28;20042;-59
2022/12/03 01:02:33;;;;;;;9.80;7.78;;;21.30;38.90;;;;;;4994328;28;20085;-61
2022/12/03 01:04:58;;;;;;;9.15;7.53;;;21.30;38.80;;;;;;4992180;28;20065;-59
2022/12/03 01:07:24;;;;;;;11.27;7.88;;;21.30;38.70;;;;;;4994809;28;20042;-59
2022/12/03 01:09:49;;;;;;;9.23;7.28;;;21.30;38.70;;;;;;4992517;28;20037;-58
2022/12/03 01:12:15;;;;;;;9.85;7.68;;;21.20;38.70;;;;;;4993795;28;20194;-59
2022/12/03 01:14:41;;;;;;;8.77;7.25;;;21.20;38.70;;;;;;4991120;28;20089;-60
2022/12/03 01:17:06;;;;;;;9.40;6.90;;;21.20;38.70;;;;;;4993229;28;20033;-60
2022/12/03 01:19:34;;;;;;;9.23;7.10;;;21.20;38.70;;;;;;4991034;28;20058;-59
2022/12/03 01:21:59;;;;;;;9.40;7.25;;;21.20;38.80;;;;;;4991138;28;20038;-59
2022/12/03 01:24:25;;;;;;;8.25;7.35;;;21.20;38.80;;;;;;4991226;28;20535;-59
2022/12/03 01:26:51;;;;;;;9.80;8.02;;;21.20;38.80;;;;;;4992173;28;20081;-60
2022/12/03 01:29:16;;;;;;;8.40;7.10;;;21.10;38.80;;;;;;4992732;28;20038;-60
2022/12/03 01:34:27;;;;;;;8.55;7.65;;;21.10;38.90;;;;;;4992912;28;20041;-59
2022/12/03 01:36:52;;;;;;;9.23;7.10;;;21.10;38.90;;;;;;4993156;28;20037;-61
2022/12/03 01:39:18;;;;;;;8.45;7.10;;;21.10;38.90;;;;;;4993266;28;20045;-59
2022/12/03 01:41:44;;;;;;;9.57;7.18;;;21.00;38.80;;;;;;4990754;28;20088;-59
2022/12/03 01:44:17;;;;;;;6.55;5.90;;;21.00;38.80;;;;;;4993434;28;20080;-59
2022/12/03 01:46:44;;;;;;;8.07;6.85;;;21.00;38.90;;;;;;4992491;28;20136;-59
2022/12/03 01:49:17;;;;;;;7.25;6.53;;;21.00;39.00;;;;;;4992411;28;20483;-59
2022/12/03 01:51:44;;;;;;;7.22;6.45;;;21.00;39.00;;;;;;4993758;28;20069;-58
2022/12/03 01:54:19;;;;;;;8.15;6.55;;;20.90;39.00;;;;;;4996381;28;20038;-60
2022/12/03 01:56:46;;;;;;;7.05;6.15;;;20.90;39.00;;;;;;4992795;28;20042;-59
2022/12/03 01:59:17;;;;;;;9.40;6.30;;;20.90;39.10;;;;;;4992871;28;20104;-59
2022/12/03 02:01:43;;;;;;;6.97;6.28;;;20.90;39.10;;;;;;4991851;28;20049;-59
2022/12/03 02:04:14;;;;;;;6.35;5.65;;;20.90;39.00;;;;;;4991817;28;20046;-59
2022/12/03 02:06:41;;;;;;;8.23;6.70;;;20.90;39.00;;;;;;4993100;28;20069;-59
2022/12/03 02:09:10;;;;;;;7.43;6.10;;;20.80;39.00;;;;;;4991929;28;20042;-59
2022/12/03 02:11:39;;;;;;;6.78;5.65;;;20.80;39.00;;;;;;4992799;28;20046;-60
2022/12/03 02:14:09;;;;;;;6.20;5.60;;;20.80;39.00;;;;;;4992937;28;20121;-58
2022/12/03 02:16:37;;;;;;;7.22;5.70;;;20.70;39.10;;;;;;4998260;28;20121;-60
2022/12/03 02:19:05;;;;;;;6.10;5.50;;;20.70;39.10;;;;;;4991180;28;20060;-59
2022/12/03 02:21:38;;;;;;;6.63;5.75;;;20.70;39.00;;;;;;4991765;28;20409;-60
2022/12/03 02:24:16;;;;;;;6.63;5.97;;;20.70;39.00;;;;;;4991204;28;20177;-59
2022/12/03 02:26:42;;;;;;;7.57;5.72;;;20.70;39.00;;;;;;4991857;28;20133;-59
2022/12/03 02:29:08;;;;;;;6.57;5.60;;;20.70;39.00;;;;;;4990759;28;20030;-59
2022/12/03 02:31:33;;;;;;;7.40;5.90;;;20.70;39.10;;;;;;4991999;28;20170;-60
2022/12/03 02:34:03;;;;;;;7.85;5.78;;;20.60;39.10;;;;;;4995771;28;20450;-60
2022/12/03 02:36:29;;;;;;;6.03;5.37;;;20.60;39.10;;;;;;4990936;28;20389;-60
2022/12/03 02:38:54;;;;;;;5.22;4.72;;;20.60;39.00;;;;;;4991626;28;20041;-59
2022/12/03 02:44:05;;;;;;;5.95;5.30;;;20.60;39.00;;;;;;4994841;28;20049;-58
2022/12/03 02:46:32;;;;;;;7.93;5.53;;;20.50;39.00;;;;;;4995178;28;20125;-59
2022/12/03 02:48:59;;;;;;;5.88;5.25;;;20.50;39.00;;;;;;4996602;28;20042;-58
2022/12/03 02:51:25;;;;;;;6.80;5.70;;;20.50;39.00;;;;;;4996502;28;20053;-61
2022/12/03 02:53:52;;;;;;;5.25;4.55;;;20.50;39.00;;;;;;4997064;28;20509;-60
2022/12/03 02:56:23;;;;;;;5.72;5.07;;;20.50;39.10;;;;;;4994616;28;20038;-59
2022/12/03 02:58:52;;;;;;;6.25;5.00;;;20.50;39.10;;;;;;4994143;28;20045;-58
2022/12/03 03:01:18;;;;;;;5.50;5.00;;;20.50;39.10;;;;;;4994928;28;20044;-59
2022/12/03 03:03:45;;;;;;;5.70;5.00;;;20.40;39.00;;;;;;4997332;28;20050;-60
2022/12/03 03:06:12;;;;;;;5.68;5.15;;;20.40;39.10;;;;;;4995274;28;20039;-59
2022/12/03 03:08:39;;;;;;;6.15;5.55;;;20.40;39.10;;;;;;4996361;28;20042;-59
2022/12/03 03:11:04;;;;;;;5.60;4.90;;;20.40;39.10;;;;;;4994519;28;20042;-59
2022/12/03 03:13:32;;;;;;;5.13;4.63;;;20.40;39.10;;;;;;4993599;28;20042;-58
2022/12/03 03:15:58;;;;;;;5.25;4.75;;;20.30;39.10;;;;;;4995161;28;20050;-61
2022/12/03 03:18:24;;;;;;;5.32;4.82;;;20.30;39.10;;;;;;4994737;28;20584;-59
2022/12/03 03:20:50;;;;;;;5.25;4.50;;;20.30;39.10;;;;;;4995633;28;20125;-59
2022/12/03 03:23:19;;;;;;;5.05;4.65;;;20.30;39.10;;;;;;4996392;28;20038;-60
2022/12/03 03:25:57;;;;;;;5.07;4.57;;;20.30;39.10;;;;;;4995247;28;20049;-59
2022/12/03 03:28:24;;;;;;;4.95;4.43;;;20.30;39.00;;;;;;4995374;28;20905;-58
2022/12/03 03:30:50;;;;;;;5.88;5.25;;;20.20;39.00;;;;;;4995140;28;20069;-60
2022/12/03 03:33:16;;;;;;;5.65;5.03;;;20.30;39.10;;;;;;4995499;28;20096;-58
2022/12/03 03:35:44;;;;;;;5.00;4.53;;;20.20;39.00;;;;;;4997242;28;20112;-60
2022/12/03 03:38:10;;;;;;;5.43;4.75;;;20.20;39.10;;;;;;4994819;28;20073;-60
2022/12/03 03:40:37;;;;;;;4.82;4.32;;;20.20;39.80;;;;;;4994168;28;20073;-58
2022/12/03 03:43:03;;;;;;;5.30;4.80;;;20.20;39.00;;;;;;4995056;28;20061;-59
2022/12/03 03:45:29;;;;;;;4.80;4.40;;;20.20;39.00;;;;;;4995686;28;20042;-59
2022/12/03 03:47:56;;;;;;;5.28;4.60;;;20.20;39.10;;;;;;4996417;28;20374;-61
2022/12/03 03:50:22;;;;;;;4.75;4.25;;;20.10;39.00;;;;;;4993135;28;20061;-60
2022/12/03 03:52:48;;;;;;;4.90;4.43;;;20.10;39.00;;;;;;4994792;28;20042;-59
2022/12/03 03:55:14;;;;;;;5.00;4.50;;;20.10;39.00;;;;;;4991702;28;20061;-59
2022/12/03 03:57:39;;;;;;;5.05;4.55;;;20.10;39.00;;;;;;4994548;28;20198;-59
2022/12/03 04:00:07;;;;;;;5.18;4.55;;;20.10;39.10;;;;;;4991380;28;20033;-59
2022/12/03 04:02:33;;;;;;;5.35;4.85;;;20.10;39.00;;;;;;4994978;28;20185;-59
2022/12/03 04:04:59;;;;;;;5.00;4.50;;;20.10;39.00;;;;;;4992865;28;20038;-60
2022/12/03 04:07:25;;;;;;;5.10;4.40;;;20.10;39.10;;;;;;4996525;28;20049;-59
2022/12/03 04:09:50;;;;;;;4.88;4.40;;;20.00;39.00;;;;;;4993232;28;20068;-59
2022/12/03 04:15:00;;;;;;;4.88;4.30;;;20.00;39.00;;;;;;4995204;28;20133;-58
2022/12/03 04:17:26;;;;;;;4.97;4.47;;;20.00;39.00;;;;;;4993272;28;20121;-58
2022/12/03 04:19:51;;;;;;;5.10;4.60;;;20.00;39.00;;;;;;4993544;28;20049;-59
2022/12/03 04:30:30;;;;;;;5.10;4.60;;;19.90;39.10;;;;;;4994092;28;20401;-60
2022/12/03 04:35:43;;;;;;;4.95;4.47;;;19.90;39.10;;;;;;4992649;28;20074;-60
2022/12/03 04:38:10;;;;;;;5.53;5.03;;;19.90;39.20;;;;;;4994692;28;20030;-59
2022/12/03 04:43:21;;;;;;;4.80;4.40;;;19.80;39.20;;;;;;4995474;28;20105;-59
2022/12/03 04:45:46;;;;;;;5.50;5.00;;;19.80;39.20;;;;;;4992036;28;20078;-58
2022/12/03 04:48:12;;;;;;;4.78;4.38;;;19.80;39.20;;;;;;4995245;28;20346;-61
2022/12/03 04:50:37;;;;;;;4.80;4.30;;;19.80;39.20;;;;;;4991869;28;20436;-60
2022/12/03 04:53:03;;;;;;;4.90;4.40;;;19.80;39.20;;;;;;4994508;28;20038;-58
2022/12/03 04:55:28;;;;;;;4.43;4.03;;;19.80;39.20;;;;;;4993344;28;20184;-61
2022/12/03 04:57:54;;;;;;;4.55;4.05;;;19.80;39.20;;;;;;4995879;28;20478;-61
2022/12/03 05:00:20;;;;;;;5.15;4.65;;;19.80;39.20;;;;;;4993766;28;20053;-61
2022/12/03 05:02:45;;;;;;;4.75;4.35;;;19.80;39.20;;;;;;4994439;28;20138;-59
2022/12/03 05:05:11;;;;;;;4.95;4.45;;;19.70;39.30;;;;;;4993070;28;20448;-60
2022/12/03 05:07:36;;;;;;;4.80;4.22;;;19.70;39.20;;;;;;4995226;28;20034;-58
2022/12/03 05:10:04;;;;;;;5.00;4.50;;;19.70;39.20;;;;;;4992960;28;20065;-59
2022/12/03 05:12:29;;;;;;;4.97;4.55;;;19.70;39.20;;;;;;4995750;28;20073;-59
2022/12/03 05:14:55;;;;;;;4.97;4.47;;;19.70;39.20;;;;;;4992192;28;20086;-58
2022/12/03 05:17:20;;;;;;;4.90;4.50;;;19.70;39.20;;;;;;4995982;28;20591;-60
2022/12/03 05:22:30;;;;;;;5.28;4.65;;;19.70;39.20;;;;;;4995487;28;20057;-59
2022/12/03 05:24:56;;;;;;;4.63;4.22;;;19.60;39.10;;;;;;4993494;28;20050;-59
2022/12/03 05:27:21;;;;;;;5.10;4.60;;;19.60;39.10;;;;;;4995007;28;20081;-58
2022/12/03 05:29:47;;;;;;;4.65;4.25;;;19.60;39.20;;;;;;4991113;28;20045;-59
2022/12/03 05:32:12;;;;;;;4.65;4.20;;;19.60;39.20;;;;;;4991908;28;20129;-58
2022/12/03 05:34:38;;;;;;;5.47;4.97;;;19.60;39.20;;;;;;4995714;28;20045;-59
2022/12/03 05:37:04;;;;;;;4.60;4.20;;;19.60;39.40;;;;;;4992326;28;20562;-59
2022/12/03 05:39:29;;;;;;;5.30;4.80;;;19.60;39.50;;;;;;4991145;28;20060;-59
2022/12/03 05:44:39;;;;;;;4.90;4.40;;;19.50;39.40;;;;;;4994661;28;20516;-59
2022/12/03 05:47:05;;;;;;;4.82;4.40;;;19.50;39.40;;;;;;4993922;28;20037;-60
2022/12/03 05:49:31;;;;;;;4.97;4.55;;;19.50;39.40;;;;;;4992118;28;20042;-59
2022/12/03 05:51:56;;;;;;;4.82;4.43;;;19.50;39.30;;;;;;4991236;28;20053;-59
2022/12/03 05:54:22;;;;;;;5.28;4.72;;;19.50;39.40;;;;;;4995497;28;20762;-60
2022/12/03 05:56:47;;;;;;;4.60;4.20;;;19.50;39.40;;;;;;4991457;28;20078;-58
2022/12/03 05:59:13;;;;;;;4.57;4.18;;;19.50;39.40;;;;;;4992053;28;20921;-58
2022/12/03 06:01:38;;;;;;;6.10;4.63;;;19.50;39.40;;;;;;4991270;28;20081;-58
2022/12/03 06:04:04;;;;;;;4.80;4.40;;;19.50;39.40;;;;;;4994249;28;20045;-59
2022/12/03 06:06:30;;;;;;;5.32;4.20;;;19.50;39.40;;;;;;4989172;28;20053;-59
2022/12/03 06:08:55;;;;;;;4.72;4.28;;;19.50;39.40;;;;;;4991908;28;20038;-58
2022/12/03 06:11:21;;;;;;;4.50;4.10;;;19.50;39.40;;;;;;4992636;28;20037;-60
2022/12/03 06:13:47;;;;;;;5.47;4.78;;;19.40;39.30;;;;;;4992544;28;20050;-58
2022/12/03 06:16:12;;;;;;;6.00;4.65;;;19.40;39.40;;;;;;4992010;28;20129;-59
2022/12/03 06:18:38;;;;;;;5.55;5.03;;;19.40;39.60;;;;;;4994589;28;20096;-60
2022/12/03 06:21:03;;;;;;;5.00;3.97;;;19.40;39.50;;;;;;4992947;28;20091;-59
2022/12/03 06:23:29;;;;;;;4.45;4.05;;;19.40;39.50;;;;;;4993513;28;20049;-60
2022/12/03 06:25:55;;;;;;;4.75;4.25;;;19.40;39.50;;;;;;4991926;28;20030;-59
2022/12/03 06:28:20;;;;;;;5.30;4.80;;;19.40;39.50;;;;;;4991839;28;20041;-59
2022/12/03 06:30:46;;;;;;;4.82;4.43;;;19.40;39.50;;;;;;4992130;28;20042;-60
2022/12/03 06:33:11;;;;;;;4.72;4.32;;;19.40;39.50;;;;;;4992995;28;20045;-60
2022/12/03 06:35:37;;;;;;;4.75;4.25;;;19.40;39.50;;;;;;4992767;28;20073;-60
2022/12/03 06:38:02;;;;;;;5.40;4.90;;;19.30;39.40;;;;;;4992277;28;20053;-60
2022/12/03 06:40:28;;;;;;;6.25;5.05;;;19.30;39.60;;;;;;4992465;28;20053;-60
2022/12/03 06:42:54;;;;;;;22.27;5.93;;;19.40;39.70;;;;;;4992184;28;20042;-59
2022/12/03 06:45:19;;;;;;;8.85;5.03;;;19.80;39.50;;;;;;4987883;28;20073;-59
2022/12/03 06:47:45;;;;;;;9.70;5.30;;;20.30;38.80;;;;;;4989872;28;20062;-59
2022/12/03 06:50:11;;;;;;;6.30;4.75;;;21.00;38.00;;;;;;4990699;28;20034;-60
2022/12/03 06:52:36;;;;;;;6.00;4.90;;;21.50;37.10;;;;;;4993072;28;20038;-60
2022/12/03 06:55:02;;;;;;;5.88;4.80;;;22.00;36.50;;;;;;4990375;28;20181;-59
2022/12/03 06:57:28;;;;;;;6.78;4.50;;;22.20;36.10;;;;;;4992128;28;20085;-60
2022/12/03 06:59:54;;;;;;;9.18;5.72;;;22.30;36.00;;;;;;4992244;28;20042;-60
2022/12/03 07:02:19;;;;;;;5.40;4.78;;;22.30;35.90;;;;;;4992183;28;20220;-60
2022/12/03 07:04:45;;;;;;;5.13;4.63;;;22.30;35.80;;;;;;4991883;28;20724;-59
2022/12/03 07:07:10;;;;;;;5.65;5.13;;;22.40;35.90;;;;;;4993689;28;20259;-61
2022/12/03 07:09:36;;;;;;;5.47;4.88;;;22.40;35.70;;;;;;4992859;28;20074;-59
2022/12/03 07:12:01;;;;;;;5.97;5.38;;;22.40;35.80;;;;;;4992737;28;20045;-60
2022/12/03 07:14:27;;;;;;;5.90;5.30;;;22.30;35.90;;;;;;4993402;28;20069;-60
2022/12/03 07:16:53;;;;;;;5.68;5.13;;;22.20;36.00;;;;;;4991635;28;20034;-59
2022/12/03 07:19:18;;;;;;;6.35;5.75;;;22.10;36.10;;;;;;4989832;28;20069;-59
2022/12/03 07:21:44;;;;;;;7.70;6.38;;;22.10;36.10;;;;;;4993258;28;20550;-60
2022/12/03 07:24:09;;;;;;;8.63;6.65;;;22.10;36.20;;;;;;4992488;28;20084;-60
2022/12/03 07:26:35;;;;;;;6.90;5.97;;;22.00;36.10;;;;;;4990098;28;20486;-60
2022/12/03 07:29:01;;;;;;;7.97;6.05;;;21.90;36.10;;;;;;4993161;28;20052;-60
2022/12/03 07:31:26;;;;;;;7.82;6.78;;;22.00;36.20;;;;;;4996132;28;20042;-59
2022/12/03 07:33:52;;;;;;;9.27;6.82;;;22.00;36.20;;;;;;4997681;28;20468;-60
2022/12/03 07:36:18;;;;;;;7.00;6.30;;;21.90;36.00;;;;;;4994072;28;20505;-60
2022/12/03 07:38:43;;;;;;;7.68;6.78;;;21.90;36.00;;;;;;4995123;28;20117;-60
2022/12/03 07:41:09;;;;;;;8.60;6.90;;;21.90;36.00;;;;;;4993680;28;20135;-60
2022/12/03 07:43:50;;;;;;;7.18;6.38;;;21.90;36.00;;;;;;4983686;28;20058;-60
2022/12/03 07:46:15;;;;;;;8.50;7.45;;;21.90;36.00;;;;;;4994011;28;20097;-60
2022/12/03 07:48:41;;;;;;;7.57;6.78;;;21.90;36.20;;;;;;4996015;28;20116;-60
2022/12/03 07:51:07;;;;;;;8.20;6.57;;;21.90;36.20;;;;;;4995659;28;20080;-59
2022/12/03 07:53:34;;;;;;;9.95;7.05;;;21.90;36.20;;;;;;4994056;28;20089;-59
2022/12/03 07:56:01;;;;;;;8.98;6.80;;;21.90;36.20;;;;;;4995192;28;20422;-60
2022/12/03 07:58:26;;;;;;;9.98;7.35;;;21.90;36.20;;;;;;4994077;28;20038;-59
2022/12/03 08:00:52;;;;;;;8.75;7.10;;;21.90;36.10;;;;;;4993200;28;20534;-60
2022/12/03 08:03:17;;;;;;;7.82;6.60;;;22.00;36.30;;;;;;4995030;28;20042;-61
2022/12/03 08:05:43;;;;;;;8.43;7.05;;;21.90;36.10;;;;;;4993229;28;20057;-60
2022/12/03 08:08:08;;;;;;;8.13;7.30;;;21.90;36.10;;;;;;4991794;28;20045;-60
2022/12/03 08:10:34;;;;;;;8.43;7.53;;;22.00;36.20;;;;;;4993179;28;20041;-60
2022/12/03 08:13:01;;;;;;;9.80;7.80;;;22.00;36.20;;;;;;4993529;28;20038;-60
2022/12/03 08:15:28;;;;;;;8.38;7.43;;;22.00;36.20;;;;;;4992734;28;20603;-60
2022/12/03 08:17:57;;;;;;;8.60;7.78;;;22.00;36.10;;;;;;4988446;28;20042;-60
2022/12/03 08:20:26;;;;;;;9.25;7.55;;;22.00;36.10;;;;;;4992825;28;20054;-60
2022/12/03 08:22:53;;;;;;;9.95;8.07;;;22.00;36.00;;;;;;4992382;28;20034;-61
2022/12/03 08:25:22;;;;;;;8.45;7.13;;;22.00;36.00;;;;;;4992523;28;20635;-60
2022/12/03 08:27:48;;;;;;;10.15;8.50;;;22.00;36.00;;;;;;4994668;28;20038;-60
2022/12/03 08:30:15;;;;;;;8.82;7.90;;;22.00;36.00;;;;;;4992136;28;20117;-60
2022/12/03 08:32:41;;;;;;;8.90;7.47;;;22.00;35.90;;;;;;4991189;28;20041;-60
2022/12/03 08:35:21;;;;;;;9.82;8.30;;;22.00;35.90;;;;;;4991744;28;20401;-60
2022/12/03 08:37:54;;;;;;;11.05;7.95;;;22.00;35.70;;;;;;4993851;28;20038;-63
2022/12/03 08:40:33;;;;;;;9.52;8.07;;;22.00;35.80;;;;;;4988918;28;20038;-61
2022/12/03 08:42:59;;;;;;;8.70;7.80;;;22.00;35.70;;;;;;4994176;28;20046;-60
2022/12/03 08:45:39;;;;;;;9.38;7.70;;;22.10;35.70;;;;;;4993264;28;20044;-62
2022/12/03 08:48:31;;;;;;;10.63;8.43;;;22.00;35.50;;;;;;4995628;28;20042;-62
2022/12/03 08:51:08;;;;;;;9.40;7.95;;;22.00;35.40;;;;;;4992537;28;20038;-60
2022/12/03 08:53:44;;;;;;;9.70;7.75;;;22.00;35.50;;;;;;4992816;28;20662;-61
2022/12/03 08:56:25;;;;;;;9.07;7.60;;;22.00;35.40;;;;;;4994232;28;20385;-64
2022/12/03 08:58:56;;;;;;;11.98;8.45;;;22.00;35.30;;;;;;4995389;28;20049;-61
2022/12/03 09:01:43;;;;;;;11.10;9.02;;;22.00;35.50;;;;;;4994474;28;20206;-62
2022/12/03 09:04:36;;;;;;;9.65;7.78;;;22.00;35.50;;;;;;4991466;28;20145;-61
2022/12/03 09:07:01;;;;;;;9.32;8.32;;;22.00;35.40;;;;;;4992384;28;20042;-61
2022/12/03 09:09:27;;;;;;;10.77;8.98;;;22.00;35.50;;;;;;4990854;28;20042;-60
2022/12/03 09:11:53;;;;;;;10.70;8.80;;;22.00;35.80;;;;;;4994477;28;20524;-59
2022/12/03 09:14:22;;;;;;;12.57;8.43;;;22.10;36.00;;;;;;4990942;28;20038;-60
2022/12/03 09:16:50;;;;;;;10.05;8.63;;;22.10;36.10;;;;;;4994415;28;20040;-60
2022/12/03 09:19:16;;;;;;;11.63;8.43;;;22.00;36.20;;;;;;4994150;28;20718;-62
2022/12/03 09:21:41;;;;;;;12.48;9.15;;;22.10;36.30;;;;;;4991288;28;20034;-60
2022/12/03 09:24:07;;;;;;;10.63;9.15;;;22.10;36.60;;;;;;4991695;28;20985;-60
2022/12/03 09:26:33;;;;;;;10.10;7.95;;;22.00;36.70;;;;;;4993462;28;20117;-60
2022/12/03 09:28:58;;;;;;;11.15;9.48;;;22.10;36.90;;;;;;4991640;28;20437;-61
2022/12/03 09:31:24;;;;;;;11.80;9.15;;;22.10;36.80;;;;;;4991321;28;20145;-60
2022/12/03 09:33:49;;;;;;;12.75;8.63;;;22.10;36.70;;;;;;4991871;28;20581;-61
2022/12/03 09:36:15;;;;;;;9.82;8.40;;;22.10;36.70;;;;;;4989741;28;20038;-60
2022/12/03 09:38:41;;;;;;;10.50;8.68;;;22.10;36.80;;;;;;4993473;28;20045;-60
2022/12/03 09:41:08;;;;;;;9.90;8.68;;;22.10;36.80;;;;;;4989741;28;20923;-61
2022/12/03 09:43:34;;;;;;;10.30;8.57;;;22.10;36.80;;;;;;4991522;28;20516;-60
2022/12/03 09:46:00;;;;;;;11.65;8.50;;;22.10;36.80;;;;;;4990692;28;20056;-60
2022/12/03 09:48:26;;;;;;;11.20;8.70;;;22.10;36.80;;;;;;4994340;28;20053;-60
2022/12/03 09:50:52;;;;;;;9.68;8.60;;;22.10;36.90;;;;;;4991829;28;20041;-60
2022/12/03 09:53:20;;;;;;;11.00;8.75;;;22.20;36.90;;;;;;4991978;28;20049;-61
2022/12/03 09:55:48;;;;;;;9.25;8.13;;;22.10;36.70;;;;;;4990637;28;20124;-60
2022/12/03 09:58:16;;;;;;;11.25;8.95;;;22.10;36.90;;;;;;4993100;28;20053;-62
2022/12/03 10:00:46;;;;;;;11.80;8.55;;;22.20;36.90;;;;;;4992370;28;20037;-60
2022/12/03 10:03:14;;;;;;;10.25;8.60;;;22.10;36.90;;;;;;4991023;28;20044;-60
2022/12/03 10:05:40;;;;;;;10.93;8.70;;;22.20;37.00;;;;;;4992105;28;20046;-60
2022/12/03 10:08:10;;;;;;;9.75;8.68;;;22.10;37.00;;;;;;4993347;28;20045;-60
2022/12/03 10:10:38;;;;;;;9.30;8.23;;;22.10;37.00;;;;;;4991959;28;20720;-59
2022/12/03 10:13:05;;;;;;;9.63;7.95;;;22.20;37.10;;;;;;4989308;28;20077;-60
2022/12/03 10:15:31;;;;;;;9.50;8.52;;;22.10;37.00;;;;;;4990512;28;20042;-60
2022/12/03 10:17:57;;;;;;;10.82;8.82;;;22.10;37.00;;;;;;4993532;28;20044;-60
2022/12/03 10:20:24;;;;;;;12.73;8.95;;;22.10;36.90;;;;;;4991373;28;20129;-61
2022/12/03 10:22:50;;;;;;;10.05;8.25;;;22.10;36.80;;;;;;4990882;28;20077;-60
2022/12/03 10:25:19;;;;;;;10.07;8.55;;;22.10;36.70;;;;;;4992357;28;20485;-61
2022/12/03 10:27:57;;;;;;;9.80;8.63;;;22.20;36.50;;;;;;4992178;28;20046;-60
2022/12/03 10:30:27;;;;;;;10.65;8.70;;;22.40;36.40;;;;;;4991053;28;20054;-60
2022/12/03 10:32:54;;;;;;;9.10;8.10;;;22.50;36.10;;;;;;4991837;28;20536;-61
2022/12/03 10:35:35;;;;;;;11.13;7.95;;;22.60;36.10;;;;;;4990736;28;20084;-61
2022/12/03 10:38:02;;;;;;;9.27;8.23;;;22.70;35.50;;;;;;4991945;28;20132;-61
2022/12/03 10:40:36;;;;;;;9.15;8.15;;;22.80;35.50;;;;;;4989837;28;20073;-61
2022/12/03 10:43:17;;;;;;;10.50;8.32;;;22.80;35.20;;;;;;4990899;28;20529;-61
2022/12/03 10:45:45;;;;;;;9.45;8.10;;;22.90;35.10;;;;;;4990699;28;20058;-60
2022/12/03 10:48:17;;;;;;;10.27;8.30;;;22.90;35.20;;;;;;4989242;28;20462;-61
2022/12/03 10:50:55;;;;;;;9.85;8.77;;;22.90;35.00;;;;;;4990984;28;20436;-60
2022/12/03 10:53:24;;;;;;;9.55;8.55;;;22.90;34.90;;;;;;4990769;28;20137;-60
2022/12/03 10:55:57;;;;;;;10.93;8.63;;;22.90;35.00;;;;;;4989985;28;20081;-61
2022/12/03 10:58:25;;;;;;;9.38;8.40;;;23.00;34.80;;;;;;4992652;28;20048;-60
2022/12/03 11:00:53;;;;;;;9.50;8.50;;;23.00;34.70;;;;;;4989615;28;20038;-61
2022/12/03 11:03:25;;;;;;;10.05;9.00;;;23.00;34.70;;;;;;4992366;28;20389;-61
2022/12/03 11:05:52;;;;;;;16.42;9.05;;;23.00;34.40;;;;;;4994824;28;20057;-60
2022/12/03 11:08:20;;;;;;;9.90;8.88;;;23.00;34.50;;;;;;4994767;28;20050;-62
2022/12/03 11:11:11;;;;;;;11.13;9.20;;;23.00;34.60;;;;;;4995086;28;20494;-61
2022/12/03 11:13:37;;;;;;;;;;;23.00;34.30;;;;;;5003834;28;20069;-61
2022/12/03 11:16:04;;;;;;;9.30;8.32;;;22.90;34.30;;;;;;4993478;28;20816;-61
2022/12/03 11:18:36;;;;;;;10.75;9.65;;;22.90;34.90;;;;;;4996197;28;20050;-61
2022/12/03 11:21:04;;;;;;;12.98;9.27;;;22.90;35.00;;;;;;4993416;28;20046;-61
2022/12/03 11:23:44;;;;;;;11.80;9.57;;;22.90;35.00;;;;;;4994627;28;20050;-61
2022/12/03 11:26:25;;;;;;;13.05;8.85;;;22.90;35.00;;;;;;4994876;28;20133;-61
2022/12/03 11:28:53;;;;;;;10.52;9.13;;;23.00;35.00;;;;;;4994781;28;20102;-60
2022/12/03 11:31:46;;;;;;;12.15;9.23;;;23.00;35.10;;;;;;4993912;28;20034;-60
2022/12/03 11:34:20;;;;;;;10.35;9.25;;;23.10;35.00;;;;;;4994613;28;21127;-60
2022/12/03 11:37:08;;;;;;;10.25;8.65;;;23.10;35.00;;;;;;4995518;28;20751;-61
2022/12/03 11:39:48;;;;;;;11.27;9.50;;;23.10;35.00;;;;;;4995752;28;20115;-60
2022/12/03 11:42:26;;;;;;;10.48;8.73;;;23.10;35.00;;;;;;4994355;28;20058;-61
2022/12/03 11:45:04;;;;;;;13.15;9.85;;;23.20;35.00;;;;;;4992189;28;20054;-61
2022/12/03 11:47:44;;;;;;;15.90;9.68;;;23.20;35.00;;;;;;4994748;28;20050;-59
2022/12/03 11:50:16;;;;;;;;;;;23.10;35.10;;;;;;4995649;28;20045;-61
2022/12/03 11:52:45;;;;;;;11.52;9.05;;;23.10;35.10;;;;;;5023874;28;19936;-60
2022/12/03 11:55:16;;;;;;;10.18;9.02;;;23.10;35.30;;;;;;4994435;28;20049;-61
2022/12/03 11:57:42;;;;;;;11.45;9.80;;;23.10;35.50;;;;;;4996494;28;20490;-60
2022/12/03 12:00:14;;;;;;;11.73;9.50;;;23.10;35.40;;;;;;4993364;28;20056;-61
2022/12/03 12:02:40;;;;;;;13.25;9.05;;;23.10;35.70;;;;;;4993938;28;20049;-61
2022/12/03 12:05:22;;;;;;;12.20;9.35;;;23.10;35.60;;;;;;4992363;28;20042;-59
2022/12/03 12:07:49;;;;;;;13.55;9.63;;;23.10;35.70;;;;;;4993496;28;20473;-59
2022/12/03 12:10:42;;;;;;;10.95;9.80;;;23.10;35.60;;;;;;4991902;28;20044;-59
2022/12/03 12:13:47;;;;;;;12.43;10.23;;;23.10;35.50;;;;;;4992335;28;20481;-59
2022/12/03 12:16:12;;;;;;;12.27;9.75;;;23.10;35.20;;;;;;4989872;28;20113;-60
2022/12/03 12:18:47;;;;;;;11.15;9.98;;;23.10;35.30;;;;;;4994439;28;20030;-60
2022/12/03 12:21:42;;;;;;;10.25;9.20;;;23.10;35.00;;;;;;4991741;28;20069;-60
2022/12/03 12:24:26;;;;;;;12.20;10.32;;;23.10;34.90;;;;;;4992939;28;20136;-60
2022/12/03 12:26:52;;;;;;;11.13;9.85;;;23.10;34.90;;;;;;4992874;28;20042;-60
2022/12/03 12:29:17;;;;;;;10.50;9.05;;;23.10;35.00;;;;;;4992529;28;20689;-60
2022/12/03 12:31:43;;;;;;;13.23;9.90;;;23.20;34.90;;;;;;4991861;28;20042;-60
2022/12/03 12:34:12;;;;;;;11.50;9.60;;;23.20;34.90;;;;;;4993051;28;20423;-60
2022/12/03 12:36:38;;;;;;;10.98;9.48;;;23.20;34.70;;;;;;4992270;28;20046;-60
2022/12/03 12:39:14;;;;;;;13.70;9.80;;;23.20;34.70;;;;;;4994934;28;20045;-60
2022/12/03 12:41:41;;;;;;;12.20;9.93;;;23.20;34.60;;;;;;4993463;28;20049;-60
2022/12/03 12:44:10;;;;;;;12.13;9.75;;;23.10;34.60;;;;;;4993668;28;20418;-60
2022/12/03 12:46:37;;;;;;;10.98;9.73;;;23.10;34.50;;;;;;4992123;28;20037;-60
2022/12/03 12:49:10;;;;;;;13.50;10.45;;;23.20;34.50;;;;;;4995116;28;20046;-60
2022/12/03 12:51:42;;;;;;;11.35;9.30;;;23.20;34.50;;;;;;4993435;28;20411;-61
2022/12/03 12:54:13;;;;;;;11.57;9.25;;;23.20;34.30;;;;;;5008839;28;20142;-61
2022/12/03 12:56:41;;;;;;;12.50;9.98;;;23.20;34.10;;;;;;4992932;28;20184;-61
2022/12/03 12:59:12;;;;;;;11.95;9.23;;;23.20;34.10;;;;;;4994867;28;20197;-61
2022/12/03 13:01:38;;;;;;;12.25;10.02;;;23.20;33.90;;;;;;4993440;28;20041;-61
2022/12/03 13:04:21;;;;;;;11.00;9.80;;;23.20;33.90;;;;;;4992851;28;20413;-61
2022/12/03 13:06:50;;;;;;;11.40;10.18;;;23.30;33.80;;;;;;4992219;28;20081;-61
2022/12/03 13:09:19;;;;;;;11.30;9.55;;;23.30;33.90;;;;;;4991908;28;20039;-61
2022/12/03 13:11:50;;;;;;;11.07;9.40;;;23.20;33.80;;;;;;4993471;28;20520;-61
2022/12/03 13:14:19;;;;;;;12.18;9.93;;;23.20;33.70;;;;;;4992651;28;20046;-61
2022/12/03 13:16:49;;;;;;;10.65;9.43;;;23.20;33.60;;;;;;4991207;28;20046;-61